Main page
METAR-TAF:

METAR-TAF

Airports :

RAF Scampton

Scampton, England

latitude: 53-18-27N, longitude: 000-33-03W, elevation: 62 m

Current weather observation

The report was made 1 hour and 7 minutes ago, at 18:50 UTC
Wind 12 kt from the South
Temperature 19°C
Humidity 43%
Pressure 1005 hPa
Visibility 10 km or more

METAR: EGXP 251850Z AUTO 18012KT 9999 // FEW050/// 19/06 Q1005

Time: 20:57 (19:57 UTC)

Forecast

The report was made 6 hours and 33 minutes ago, at 13:24 UTC
Forecast valid from 25 at 15 UTC to 25 at 20 UTC
Wind 15 kt from the South with gusts up to 25 kt
Visibility 10 km or more
Scattered clouds at a height of 4500 ft
Becoming
from 25 at 18 UTC to 25 at 20 UTC
Wind 13 kt from the South

TAF: EGXP 251324Z 2515/2520 19015G25KT 9999 SCT045 BECMG 2518/2520 18013KT

Weather observations and forecasts of more than 4000 airports (METAR and TAF reports).

The available stations are represented by yellow and red dots on the map.

Hover mouse over dot to see the name of the station.

Then click to see weather observations and forecasts.

To change the map : click on the green buttons with a black cross to zoom in, on the green button with a dash to zoom out, or on the green arrows for adjacent maps.


METAR-TAF: